Time;durP1;ratioP1;P1;durP2;ratioP2;P2;SDS_P1;SDS_P2;PMS_P1;PMS_P2;Temp;Humidity;BMP_temperature;BMP_pressure;BME280_temperature;BME280_humidity;BME280_pressure;Samples;Min_cycle;Max_cycle;Signal;HPM_P1;HPM_P2
2023/06/28 00:00:04;;;;;;;11.45;5.97;;;;;;;25.09;56.54;98975.91;5035737;28;20021;-76
2023/06/28 00:02:35;;;;;;;8.43;6.15;;;;;;;25.21;56.09;98975.19;5036810;28;20021;-76
2023/06/28 00:05:04;;;;;;;7.55;5.78;;;;;;;25.24;55.69;98976.34;5018853;28;20025;-76
2023/06/28 00:07:32;;;;;;;8.57;6.10;;;;;;;25.22;55.95;98961.69;5049819;28;20041;-76
2023/06/28 00:09:58;;;;;;;8.27;5.72;;;;;;;24.75;58.11;98959.94;5026614;28;20037;-75
2023/06/28 00:12:23;;;;;;;12.00;6.30;;;;;;;24.47;58.90;98968.75;5031337;28;20021;-76
2023/06/28 00:14:49;;;;;;;8.88;6.00;;;;;;;24.33;59.10;98971.91;5039986;28;20033;-75
2023/06/28 00:17:15;;;;;;;8.70;5.85;;;;;;;24.36;58.45;98959.59;5042191;28;20407;-76
2023/06/28 00:19:47;;;;;;;7.13;5.88;;;;;;;24.41;57.80;98953.38;5042459;28;20164;-76
2023/06/28 00:22:16;;;;;;;6.93;5.35;;;;;;;24.56;57.43;98956.72;5040655;28;20074;-76
2023/06/28 00:24:42;;;;;;;10.40;6.07;;;;;;;24.66;57.20;98954.84;5035339;28;20479;-76
2023/06/28 00:27:08;;;;;;;9.40;5.85;;;;;;;24.62;57.22;98942.72;5053230;28;20028;-75
2023/06/28 00:29:33;;;;;;;8.70;5.30;;;;;;;24.61;57.10;98935.34;5053170;28;20519;-76
2023/06/28 00:31:59;;;;;;;6.45;5.38;;;;;;;25.03;56.40;98955.63;5053011;28;20021;-76
2023/06/28 00:34:24;;;;;;;13.52;5.70;;;;;;;25.01;55.99;98952.41;5053042;28;20029;-75
2023/06/28 00:36:49;;;;;;;9.43;5.57;;;;;;;25.03;55.48;98949.91;5032986;28;20084;-76
2023/06/28 00:39:15;;;;;;;7.53;5.90;;;;;;;24.90;55.70;98949.00;5035108;28;20025;-75
2023/06/28 00:41:40;;;;;;;9.38;5.47;;;;;;;24.73;56.24;98937.50;5035000;28;20043;-75
2023/06/28 00:44:06;;;;;;;11.45;5.72;;;;;;;24.56;56.55;98942.44;5051579;28;20052;-75
2023/06/28 00:46:34;;;;;;;5.72;4.95;;;;;;;24.70;56.08;98929.84;5052834;28;20033;-76
2023/06/28 00:49:00;;;;;;;8.77;5.25;;;;;;;24.63;56.16;98935.75;5034913;28;20059;-75
2023/06/28 00:51:30;;;;;;;11.38;5.47;;;;;;;24.67;56.09;98942.16;5022992;28;20087;-75
2023/06/28 00:53:56;;;;;;;5.67;4.97;;;;;;;24.64;55.58;98935.28;5032856;28;20030;-76
2023/06/28 00:56:24;;;;;;;7.70;5.40;;;;;;;24.64;55.64;98940.19;5032770;28;20488;-76
2023/06/28 00:58:50;;;;;;;6.10;5.45;;;;;;;24.00;57.37;98943.22;5032754;28;20411;-75
2023/06/28 01:01:16;;;;;;;6.25;5.18;;;;;;;24.43;56.84;98942.31;5021369;28;20036;-75
2023/06/28 01:03:42;;;;;;;12.68;6.13;;;;;;;24.60;56.20;98950.91;5038746;28;20485;-76
2023/06/28 01:06:10;;;;;;;7.15;5.97;;;;;;;23.48;60.87;98954.03;5034767;28;20423;-76
2023/06/28 01:08:36;;;;;;;10.20;7.10;;;;;;;22.24;66.13;98944.53;5015768;28;20060;-76
2023/06/28 01:11:01;;;;;;;8.98;7.07;;;;;;;21.42;71.04;98958.50;5017157;28;20038;-76
2023/06/28 01:13:27;;;;;;;8.13;6.95;;;;;;;21.44;71.79;98953.97;5014476;28;20112;-75
2023/06/28 01:15:53;;;;;;;12.07;7.45;;;;;;;21.35;72.21;98950.81;5014677;28;20029;-75
2023/06/28 01:18:21;;;;;;;9.60;7.30;;;;;;;21.24;72.82;98958.66;5020607;28;20087;-76
2023/06/28 01:20:49;;;;;;;11.25;7.82;;;;;;;20.57;75.70;98951.03;5042037;28;20033;-75
2023/06/28 01:23:15;;;;;;;11.10;7.80;;;;;;;20.40;76.48;98958.47;5014805;28;20079;-76
2023/06/28 01:25:42;;;;;;;8.52;7.13;;;;;;;20.76;75.44;98963.91;5014338;28;20120;-75
2023/06/28 01:28:07;;;;;;;12.10;8.60;;;;;;;20.59;75.53;98952.22;5032081;28;20107;-75
2023/06/28 01:30:37;;;;;;;9.85;7.78;;;;;;;20.61;75.09;98963.97;5031929;28;20468;-75
2023/06/28 01:33:03;;;;;;;9.37;7.97;;;;;;;20.24;76.88;98973.94;5040240;28;20056;-75
2023/06/28 01:35:31;;;;;;;13.68;7.95;;;;;;;20.13;77.52;98981.69;5050571;28;20024;-75
2023/06/28 01:37:58;;;;;;;12.07;8.23;;;;;;;20.56;76.14;98969.28;5051521;28;20040;-75
2023/06/28 01:40:23;;;;;;;13.32;7.75;;;;;;;20.54;75.01;98957.53;5023872;28;20127;-75
2023/06/28 01:42:49;;;;;;;9.30;7.10;;;;;;;20.67;74.84;98972.09;5040802;28;20465;-75
2023/06/28 01:45:14;;;;;;;9.00;7.65;;;;;;;20.70;74.48;98971.25;5032865;28;20108;-75
2023/06/28 01:47:40;;;;;;;10.90;7.93;;;;;;;20.22;76.64;98969.91;5021673;28;20068;-75
2023/06/28 01:50:06;;;;;;;16.02;7.57;;;;;;;20.11;77.29;98970.78;5037890;28;20025;-75
2023/06/28 01:52:32;;;;;;;13.48;7.13;;;;;;;20.03;77.59;98978.50;5050255;28;20028;-75
2023/06/28 01:54:57;;;;;;;11.48;7.38;;;;;;;20.13;77.54;98973.19;5033664;28;20040;-75
2023/06/28 01:57:23;;;;;;;11.55;7.97;;;;;;;20.09;78.02;98966.72;5028017;28;20033;-75
2023/06/28 01:59:48;;;;;;;12.10;8.80;;;;;;;20.24;77.61;98971.09;5017689;28;20417;-75
2023/06/28 02:02:14;;;;;;;13.02;8.45;;;;;;;19.67;79.64;98963.59;5048629;28;20045;-75
2023/06/28 02:04:39;;;;;;;12.60;8.30;;;;;;;19.69;79.84;98975.34;5030764;28;20060;-75
2023/06/28 02:07:05;;;;;;;11.18;8.45;;;;;;;19.55;80.79;98974.16;5026726;28;20025;-75
2023/06/28 02:09:30;;;;;;;11.48;7.97;;;;;;;19.59;80.84;98972.13;5016542;28;21288;-75
2023/06/28 02:11:56;;;;;;;13.20;8.90;;;;;;;19.57;81.02;98971.72;5050490;28;20029;-75
2023/06/28 02:14:21;;;;;;;13.88;8.68;;;;;;;19.69;80.26;98978.19;5042618;28;20033;-75
2023/06/28 02:16:47;;;;;;;11.63;8.68;;;;;;;19.74;80.40;98972.91;5039001;28;20116;-75
2023/06/28 02:19:12;;;;;;;18.70;8.70;;;;;;;19.62;80.90;98967.66;5049394;28;20040;-75
2023/06/28 02:21:41;;;;;;;18.70;8.98;;;;;;;19.64;81.02;98973.72;5033409;28;20040;-75
2023/06/28 02:24:11;;;;;;;15.02;9.27;;;;;;;19.69;80.74;98964.00;5049998;28;20648;-75
2023/06/28 02:26:36;;;;;;;14.60;8.48;;;;;;;19.72;80.48;98981.00;5051158;28;20040;-75
2023/06/28 02:29:02;;;;;;;18.20;8.07;;;;;;;19.80;80.08;98961.16;5031985;28;20040;-75
2023/06/28 02:31:27;;;;;;;13.30;8.50;;;;;;;19.86;79.03;98970.84;5051075;28;20043;-75
2023/06/28 02:33:52;;;;;;;11.95;8.35;;;;;;;19.90;78.95;98986.63;5051151;28;20029;-75
2023/06/28 02:36:18;;;;;;;11.20;8.43;;;;;;;20.10;78.28;98979.69;5033134;28;20500;-75
2023/06/28 02:38:43;;;;;;;24.33;8.93;;;;;;;20.14;77.72;98977.63;5033111;28;20029;-75
2023/06/28 02:41:10;;;;;;;19.58;7.70;;;;;;;20.14;77.75;98984.13;5049632;28;20043;-75
2023/06/28 02:43:35;;;;;;;11.02;7.63;;;;;;;20.18;77.77;98986.97;5050915;28;20055;-75
2023/06/28 02:46:01;;;;;;;13.95;8.43;;;;;;;20.16;77.31;98980.91;5053624;28;20028;-75
2023/06/28 02:48:26;;;;;;;11.07;8.43;;;;;;;19.90;78.04;98974.47;5036869;28;20032;-75
2023/06/28 02:50:52;;;;;;;10.93;7.70;;;;;;;19.53;79.27;98973.75;5054802;28;20505;-75
2023/06/28 02:53:17;;;;;;;10.95;8.48;;;;;;;19.55;80.03;98979.84;5049841;28;20060;-79
2023/06/28 02:55:43;;;;;;;13.10;7.85;;;;;;;19.82;78.69;98975.72;5036721;28;20060;-79
2023/06/28 02:58:08;;;;;;;11.32;7.95;;;;;;;20.14;77.13;98986.16;5049757;28;20028;-79
2023/06/28 03:00:34;;;;;;;13.18;8.00;;;;;;;19.97;77.71;98971.63;5035834;28;20021;-79
2023/06/28 03:03:03;;;;;;;11.23;8.40;;;;;;;19.91;77.74;98981.78;5023434;28;20412;-78
2023/06/28 03:05:29;;;;;;;15.20;7.22;;;;;;;19.75;77.81;98988.69;5017068;28;20057;-77
2023/06/28 03:07:54;;;;;;;12.63;7.93;;;;;;;19.44;79.32;98991.22;5017514;28;20037;-78
2023/06/28 03:10:20;;;;;;;8.82;7.88;;;;;;;19.38;80.08;98989.19;5017411;28;20029;-78
2023/06/28 03:12:45;;;;;;;10.98;8.40;;;;;;;19.36;79.95;98995.25;5034528;28;20060;-76
2023/06/28 03:15:11;;;;;;;12.65;8.40;;;;;;;19.09;80.88;98995.69;5048772;28;20029;-75
2023/06/28 03:17:36;;;;;;;13.63;8.70;;;;;;;19.34;79.78;98994.88;5022286;28;20032;-75
2023/06/28 03:20:02;;;;;;;13.10;8.25;;;;;;;19.19;80.16;98997.72;5043950;28;20500;-75
2023/06/28 03:22:27;;;;;;;9.60;7.78;;;;;;;19.26;79.94;98999.72;5052391;28;20036;-76
2023/06/28 03:24:53;;;;;;;11.55;8.48;;;;;;;19.58;78.76;98992.41;5045515;28;20033;-75
2023/06/28 03:27:19;;;;;;;11.25;8.57;;;;;;;19.77;77.54;99000.44;5034345;28;20029;-75
2023/06/28 03:29:44;;;;;;;10.15;7.05;;;;;;;19.67;77.20;99001.31;5043044;28;20036;-76
2023/06/28 03:32:09;;;;;;;23.92;8.00;;;;;;;19.48;78.13;99000.50;5044848;28;20415;-76
2023/06/28 03:34:35;;;;;;;12.68;8.05;;;;;;;19.29;79.56;98995.25;5034046;28;20037;-75
2023/06/28 03:37:00;;;;;;;14.50;7.82;;;;;;;19.63;78.88;99001.31;5052173;28;20025;-75
2023/06/28 03:39:26;;;;;;;11.63;7.45;;;;;;;19.67;77.50;99001.31;5050520;28;20033;-76
2023/06/28 03:41:51;;;;;;;14.38;8.82;;;;;;;19.57;78.40;99002.13;5014279;28;20029;-76
2023/06/28 03:44:17;;;;;;;12.15;8.80;;;;;;;19.44;78.74;99007.41;5044957;28;20036;-75
2023/06/28 03:46:42;;;;;;;11.48;8.77;;;;;;;19.56;78.60;99011.84;5049089;28;20033;-75
2023/06/28 03:49:07;;;;;;;16.80;8.52;;;;;;;19.52;78.29;99011.84;5051720;28;20032;-76
2023/06/28 03:51:33;;;;;;;13.05;7.97;;;;;;;19.73;77.54;99011.00;5053955;28;20025;-75
2023/06/28 03:53:58;;;;;;;13.70;8.10;;;;;;;19.59;78.03;99009.00;5042992;28;20037;-76
2023/06/28 03:56:24;;;;;;;9.10;7.88;;;;;;;19.59;78.03;99014.66;5052733;28;20108;-76
2023/06/28 03:58:50;;;;;;;11.23;7.95;;;;;;;19.68;77.86;99011.44;5039637;28;20057;-76
2023/06/28 04:01:16;;;;;;;13.40;8.85;;;;;;;19.83;77.99;99012.19;5045361;28;20025;-76
2023/06/28 04:03:41;;;;;;;10.65;7.68;;;;;;;19.72;78.42;99022.75;5018913;28;20126;-76
2023/06/28 04:06:07;;;;;;;10.82;8.13;;;;;;;19.76;78.69;99018.69;5033677;28;20032;-75
2023/06/28 04:08:32;;;;;;;12.65;8.57;;;;;;;19.96;77.99;99014.59;5027599;28;20029;-76
2023/06/28 04:10:58;;;;;;;13.98;9.55;;;;;;;19.97;77.75;99008.53;5040742;28;20037;-76
2023/06/28 04:13:25;;;;;;;11.25;8.70;;;;;;;20.08;77.60;99010.53;5040748;28;20146;-76
2023/06/28 04:15:51;;;;;;;9.85;7.25;;;;;;;20.18;77.29;99015.34;5042385;28;20028;-76
2023/06/28 04:18:17;;;;;;;12.75;8.45;;;;;;;20.37;77.00;99010.38;5026570;28;20092;-75
2023/06/28 04:20:42;;;;;;;13.20;8.50;;;;;;;20.30;76.40;99012.06;5047719;28;20032;-76
2023/06/28 04:23:07;;;;;;;9.32;7.65;;;;;;;20.22;77.74;99010.47;5053170;28;20033;-76
2023/06/28 04:25:33;;;;;;;15.00;8.48;;;;;;;20.65;76.06;99011.47;5035278;28;20071;-76
2023/06/28 04:27:58;;;;;;;15.85;7.97;;;;;;;20.75;75.37;99007.72;5027534;28;20102;-76
2023/06/28 04:30:24;;;;;;;20.27;8.93;;;;;;;20.83;74.65;99009.34;5043802;28;20037;-76
2023/06/28 04:32:50;;;;;;;15.40;8.35;;;;;;;21.07;74.39;99006.72;5041514;28;20033;-76
2023/06/28 04:35:17;;;;;;;17.70;8.65;;;;;;;21.11;73.01;99013.19;5052998;28;20472;-76
2023/06/28 04:37:43;;;;;;;19.42;9.23;;;;;;;20.89;74.29;98999.16;5026577;28;20025;-74
2023/06/28 04:40:10;;;;;;;15.48;8.35;;;;;;;21.17;74.17;99002.16;5031763;28;20025;-74
2023/06/28 04:42:35;;;;;;;12.18;8.13;;;;;;;21.39;72.98;99014.19;5045620;28;20507;-74
2023/06/28 04:45:00;;;;;;;14.05;7.75;;;;;;;21.56;72.09;99003.03;5046662;28;20025;-76
2023/06/28 04:47:27;;;;;;;18.23;7.80;;;;;;;21.89;70.90;99017.78;5035214;28;20066;-78
2023/06/28 04:49:54;;;;;;;24.60;8.77;;;;;;;21.93;71.08;99020.59;5050606;28;20492;-78
2023/06/28 04:52:21;;;;;;;12.45;8.32;;;;;;;22.01;70.61;99024.94;5034872;28;20021;-78
2023/06/28 04:54:47;;;;;;;18.88;8.57;;;;;;;21.85;70.84;99012.13;5034800;28;20036;-78
2023/06/28 04:57:14;;;;;;;15.02;7.38;;;;;;;22.10;70.40;99018.78;5045573;28;20021;-78
2023/06/28 04:59:40;;;;;;;16.90;9.35;;;;;;;22.09;70.95;99022.84;5032513;28;20037;-78
2023/06/28 05:02:05;;;;;;;14.57;9.23;;;;;;;22.18;70.55;99025.19;5032821;28;20026;-78
2023/06/28 05:04:34;;;;;;;13.48;8.10;;;;;;;22.36;70.36;99025.75;5035572;28;20048;-79
2023/06/28 05:07:05;;;;;;;21.40;9.20;;;;;;;22.40;70.87;99029.38;5033927;28;20025;-78
2023/06/28 05:09:32;;;;;;;14.80;8.90;;;;;;;22.64;70.00;99032.34;5052506;28;20090;-78
2023/06/28 05:11:58;;;;;;;14.80;9.38;;;;;;;22.74;69.81;99024.03;5034352;28;20086;-78
2023/06/28 05:14:25;;;;;;;16.17;11.13;;;;;;;22.78;69.22;99036.22;5043809;28;20017;-78
2023/06/28 05:16:51;;;;;;;24.60;15.98;;;;;;;22.86;68.80;99023.47;5032319;28;20104;-78
2023/06/28 05:19:16;;;;;;;19.77;13.43;;;;;;;22.88;67.95;99020.19;5014084;28;20523;-78
2023/06/28 05:21:42;;;;;;;19.98;11.50;;;;;;;22.87;68.15;99027.94;5045510;28;20029;-78
2023/06/28 05:24:07;;;;;;;15.55;10.10;;;;;;;23.17;67.68;99031.94;5052295;28;20389;-78
2023/06/28 05:26:33;;;;;;;15.15;8.70;;;;;;;23.32;66.38;99021.16;5052209;28;20420;-78
2023/06/28 05:28:58;;;;;;;16.83;9.25;;;;;;;23.06;67.22;99026.44;5051928;28;20025;-78
2023/06/28 05:31:24;;;;;;;11.30;7.47;;;;;;;23.06;67.63;99020.72;5034389;28;20017;-78
2023/06/28 05:33:49;;;;;;;15.30;8.18;;;;;;;23.09;68.09;99036.97;5017961;28;20025;-78
2023/06/28 05:36:15;;;;;;;15.00;7.88;;;;;;;23.26;68.13;99034.25;5033351;28;20084;-76
2023/06/28 05:38:40;;;;;;;26.13;8.57;;;;;;;23.58;66.64;99032.94;5051740;28;20021;-77
2023/06/28 05:41:16;;;;;;;27.63;8.35;;;;;;;23.83;65.78;99015.34;5052036;28;20044;-76
2023/06/28 05:43:43;;;;;;;41.33;8.70;;;;;;;24.33;64.52;99020.50;5033901;28;20030;-77
2023/06/28 05:46:10;;;;;;;11.32;6.57;;;;;;;24.51;61.14;99020.09;5051913;28;20027;-77
2023/06/28 05:48:35;;;;;;;12.27;6.65;;;;;;;24.77;60.41;99018.34;5051063;28;20060;-78
2023/06/28 05:51:00;;;;;;;14.07;6.88;;;;;;;25.02;59.96;99013.25;5051943;28;20082;-78
2023/06/28 05:53:26;;;;;;;14.30;7.35;;;;;;;25.30;58.98;99019.53;5050420;28;20028;-86
2023/06/28 05:55:51;;;;;;;14.48;7.38;;;;;;;25.51;56.89;99019.00;5051850;28;20082;-77
2023/06/28 05:58:18;;;;;;;17.17;7.53;;;;;;;25.81;56.29;99019.03;5039976;28;20550;-79
2023/06/28 06:00:44;;;;;;;11.50;8.13;;;;;;;25.44;56.15;99012.63;5036756;28;20052;-79
2023/06/28 06:03:09;;;;;;;16.05;7.93;;;;;;;25.51;56.00;99019.00;5051732;28;20105;-78
2023/06/28 06:05:34;;;;;;;31.92;9.73;;;;;;;25.64;56.23;99016.22;5051618;28;20079;-79
2023/06/28 06:08:00;;;;;;;13.07;8.02;;;;;;;25.91;55.72;99020.03;5033630;28;20451;-82
2023/06/28 06:10:26;;;;;;;11.15;8.07;;;;;;;25.99;54.19;99009.16;5033595;28;20025;-79
2023/06/28 06:12:53;;;;;;;16.27;9.10;;;;;;;25.59;53.84;99008.19;5051197;28;20021;-79
2023/06/28 06:15:18;;;;;;;11.23;9.00;;;;;;;25.48;53.10;99001.91;5033372;28;20517;-80
2023/06/28 06:17:44;;;;;;;11.98;8.65;;;;;;;25.48;53.94;98999.06;5018389;28;20030;-78
2023/06/28 06:20:10;;;;;;;11.77;9.35;;;;;;;25.84;53.56;99012.44;5033157;28;20068;-79
2023/06/28 06:22:35;;;;;;;11.93;9.05;;;;;;;25.97;53.08;99008.81;5051364;28;20025;-79
2023/06/28 06:25:01;;;;;;;9.60;8.10;;;;;;;26.15;52.61;99009.09;5051104;28;20025;-78
2023/06/28 06:27:26;;;;;;;13.70;9.98;;;;;;;26.28;52.43;99008.34;5026173;28;20036;-79
2023/06/28 06:29:52;;;;;;;17.63;9.55;;;;;;;26.14;50.62;99006.69;5051185;28;20025;-80
2023/06/28 06:32:17;;;;;;;14.07;9.02;;;;;;;25.99;51.37;99012.03;5033204;28;20065;-79
2023/06/28 06:34:44;;;;;;;12.95;9.15;;;;;;;26.03;50.66;99007.81;5049234;28;20496;-80
2023/06/28 06:37:12;;;;;;;12.48;9.20;;;;;;;25.82;51.59;99014.91;5051158;28;20032;-79
2023/06/28 06:39:38;;;;;;;20.48;10.02;;;;;;;26.26;50.91;99008.81;5044559;28;20037;-78
2023/06/28 06:42:04;;;;;;;15.52;9.35;;;;;;;26.33;50.64;99011.47;5030976;28;20044;-75
2023/06/28 06:44:29;;;;;;;11.02;9.50;;;;;;;26.10;51.66;99000.25;5029676;28;20104;-77
2023/06/28 06:46:55;;;;;;;13.02;9.98;;;;;;;26.16;50.73;99004.97;5013339;28;20578;-78
2023/06/28 06:49:21;;;;;;;13.95;9.45;;;;;;;26.25;51.89;99004.34;5014578;28;20466;-78
2023/06/28 06:51:47;;;;;;;12.18;8.90;;;;;;;26.25;51.38;99006.41;5012762;28;20424;-77
2023/06/28 06:54:13;;;;;;;10.85;9.02;;;;;;;26.37;50.16;98993.34;5049759;28;20040;-77
2023/06/28 06:56:38;;;;;;;14.90;9.88;;;;;;;26.33;49.86;98997.13;5039539;28;20116;-78
2023/06/28 06:59:04;;;;;;;12.65;9.23;;;;;;;26.17;50.86;98992.25;5031369;28;20033;-78
2023/06/28 07:01:32;;;;;;;13.77;9.32;;;;;;;26.60;50.23;98986.50;5036454;28;20032;-78
2023/06/28 07:03:57;;;;;;;11.02;9.95;;;;;;;26.56;50.63;98988.69;5037512;28;20094;-78
2023/06/28 07:06:23;;;;;;;14.68;8.63;;;;;;;26.82;50.60;98983.75;5044916;28;20519;-78
2023/06/28 07:08:49;;;;;;;9.43;8.52;;;;;;;26.81;47.69;98990.75;5050491;28;20399;-78
2023/06/28 07:11:14;;;;;;;18.10;9.50;;;;;;;26.93;48.55;98979.75;5032761;28;20025;-78
2023/06/28 07:13:40;;;;;;;11.30;8.70;;;;;;;27.16;48.17;98981.47;5044829;28;20033;-81
2023/06/28 07:16:05;;;;;;;11.18;8.57;;;;;;;26.98;47.17;98977.13;5037651;28;20029;-79
2023/06/28 07:18:31;;;;;;;9.55;8.55;;;;;;;26.94;47.49;98967.84;5035941;28;20029;-80
2023/06/28 07:20:56;;;;;;;8.98;8.02;;;;;;;27.14;47.08;98975.38;5014881;28;20147;-78
2023/06/28 07:23:21;;;;;;;10.95;8.18;;;;;;;27.19;47.78;98960.47;5033983;28;20064;-77
2023/06/28 07:25:47;;;;;;;8.57;7.65;;;;;;;27.53;46.47;98964.66;5038503;28;20202;-74
2023/06/28 07:28:12;;;;;;;11.93;8.40;;;;;;;27.31;45.91;98959.63;5040839;28;20028;-77
2023/06/28 07:31:04;;;;;;;11.75;8.15;;;;;;;27.68;46.39;98959.16;5019232;28;20496;-75
2023/06/28 07:33:30;;;;;;;11.20;8.45;;;;;;;27.72;44.93;98964.78;5036887;28;20047;-75
2023/06/28 07:35:55;;;;;;;12.32;8.35;;;;;;;27.76;44.73;98956.88;5045584;28;20021;-78
2023/06/28 07:38:21;;;;;;;13.98;8.15;;;;;;;27.69;44.75;98955.03;5042845;28;20035;-83
2023/06/28 07:40:47;;;;;;;10.48;8.70;;;;;;;27.85;45.58;98959.78;5042746;28;20030;-83
2023/06/28 07:43:18;;;;;;;11.95;7.97;;;;;;;27.99;43.96;98963.41;5021014;28;20047;-82
2023/06/28 07:45:43;;;;;;;10.18;8.48;;;;;;;27.81;44.42;98959.13;5034567;28;20088;-82
2023/06/28 07:48:09;;;;;;;10.35;8.65;;;;;;;28.09;44.61;98947.81;5045532;28;20481;-78
2023/06/28 07:50:35;;;;;;;8.95;8.00;;;;;;;27.80;45.28;98954.66;5037174;28;20021;-76
2023/06/28 07:53:01;;;;;;;9.20;8.25;;;;;;;27.58;46.29;98952.56;5041847;28;20179;-76
2023/06/28 07:55:29;;;;;;;11.50;8.77;;;;;;;27.77;45.62;98952.72;5048999;28;20043;-76
2023/06/28 07:57:56;;;;;;;12.43;8.05;;;;;;;27.27;46.36;98949.53;5049656;28;20029;-76
2023/06/28 08:00:22;;;;;;;12.10;8.13;;;;;;;27.70;46.38;98950.09;5049234;28;20029;-76
2023/06/28 08:02:48;;;;;;;9.60;8.60;;;;;;;28.33;45.18;98947.34;5024241;28;20026;-76
2023/06/28 08:05:14;;;;;;;13.93;9.10;;;;;;;28.69;45.29;98948.03;5045380;28;20025;-75
2023/06/28 08:07:39;;;;;;;9.25;8.35;;;;;;;28.26;44.59;98944.78;5027151;28;20115;-79
2023/06/28 08:10:05;;;;;;;10.68;8.07;;;;;;;28.61;42.64;98946.69;5038854;28;20471;-77
2023/06/28 08:12:30;;;;;;;8.75;7.93;;;;;;;28.33;42.81;98941.59;5037710;28;20415;-75
2023/06/28 08:14:56;;;;;;;11.40;7.70;;;;;;;28.80;42.67;98936.06;5033967;28;20021;-80
2023/06/28 08:17:22;;;;;;;10.20;8.15;;;;;;;29.09;41.58;98934.91;5034591;28;20090;-82
2023/06/28 08:19:47;;;;;;;12.02;7.95;;;;;;;29.20;40.83;98920.84;5042547;28;20178;-87
2023/06/28 08:22:13;;;;;;;8.25;7.43;;;;;;;29.50;39.75;98926.97;5049005;28;20458;-81
2023/06/28 08:24:39;;;;;;;7.57;6.57;;;;;;;29.66;38.08;98922.16;5025622;28;20056;-79
2023/06/28 08:27:05;;;;;;;8.75;7.95;;;;;;;28.89;38.49;98929.56;5036677;28;20025;-83
2023/06/28 08:29:31;;;;;;;12.73;8.50;;;;;;;29.18;38.45;98929.16;5049027;28;20025;-79
2023/06/28 08:31:57;;;;;;;8.23;7.32;;;;;;;29.63;36.21;98923.13;5034681;28;20033;-83
2023/06/28 08:34:22;;;;;;;9.57;7.90;;;;;;;28.96;37.99;98924.31;5039152;28;20132;-81
2023/06/28 08:36:47;;;;;;;10.45;8.05;;;;;;;29.49;38.33;98922.50;5031306;28;20496;-77
2023/06/28 08:39:13;;;;;;;9.07;7.55;;;;;;;30.10;37.79;98915.25;5022624;28;20424;-83
2023/06/28 08:41:40;;;;;;;13.48;7.88;;;;;;;30.25;36.25;98912.50;5025653;28;20377;-77
2023/06/28 08:44:12;;;;;;;13.25;7.03;;;;;;;30.48;36.09;98910.19;5040405;28;20040;-78
2023/06/28 08:46:42;;;;;;;10.25;7.45;;;;;;;30.56;37.21;98910.63;5025734;28;20021;-79
2023/06/28 08:49:08;;;;;;;10.73;7.57;;;;;;;30.71;36.85;98907.88;5033022;28;20028;-80
2023/06/28 08:51:35;;;;;;;7.95;7.15;;;;;;;30.56;36.48;98911.44;5023544;28;20025;-79
2023/06/28 08:54:00;;;;;;;8.50;7.35;;;;;;;31.22;36.96;98898.28;5042525;28;20416;-82
2023/06/28 08:56:27;;;;;;;9.93;6.88;;;;;;;31.20;34.41;98912.38;5037513;28;20036;-78
2023/06/28 08:58:53;;;;;;;13.00;7.30;;;;;;;30.60;34.58;98914.16;5024553;28;20025;-77
2023/06/28 09:01:22;;;;;;;9.60;7.22;;;;;;;30.00;34.92;98900.03;5019798;28;20076;-79
2023/06/28 09:03:48;;;;;;;9.17;7.47;;;;;;;30.39;34.67;98900.25;5024900;28;20021;-78
2023/06/28 09:06:14;;;;;;;12.80;7.43;;;;;;;29.92;35.80;98899.56;5026758;28;20456;-76
2023/06/28 09:08:41;;;;;;;7.65;6.95;;;;;;;30.70;36.55;98891.84;5016219;28;20060;-74
2023/06/28 09:11:07;;;;;;;9.88;7.30;;;;;;;30.85;34.31;98901.38;5013154;28;20805;-74
2023/06/28 09:13:32;;;;;;;7.53;6.82;;;;;;;30.53;33.89;98889.34;5017911;28;20041;-78
2023/06/28 09:15:58;;;;;;;10.15;6.50;;;;;;;31.29;33.85;98893.44;5038025;28;20077;-76
2023/06/28 09:18:23;;;;;;;7.95;7.15;;;;;;;31.71;33.23;98886.63;5037058;28;20036;-79
2023/06/28 09:20:53;;;;;;;6.97;6.28;;;;;;;31.81;31.68;98881.59;5037072;28;20709;-81
2023/06/28 09:23:24;;;;;;;7.70;6.13;;;;;;;31.46;33.25;98880.09;5016388;28;20025;-82
2023/06/28 09:25:49;;;;;;;8.10;7.30;;;;;;;31.29;33.67;98881.88;5034914;28;20039;-80
2023/06/28 09:28:16;;;;;;;8.48;6.68;;;;;;;31.36;33.46;98872.81;5044483;28;20021;-78
2023/06/28 09:30:41;;;;;;;7.70;7.00;;;;;;;31.41;34.32;98868.44;5042664;28;20100;-78
2023/06/28 09:33:07;;;;;;;8.55;7.10;;;;;;;31.04;35.36;98873.19;5039700;28;20144;-80
2023/06/28 09:35:36;;;;;;;11.68;6.63;;;;;;;31.19;34.08;98884.78;5033294;28;20025;-77
2023/06/28 09:38:07;;;;;;;9.65;7.63;;;;;;;30.94;34.59;98891.84;5041851;28;20029;-77
2023/06/28 09:40:34;;;;;;;8.82;6.45;;;;;;;31.68;33.32;98881.84;5032385;28;20028;-78
2023/06/28 09:42:59;;;;;;;7.65;6.97;;;;;;;32.15;31.85;98879.28;5037066;28;20049;-77
2023/06/28 09:45:35;;;;;;;9.00;7.25;;;;;;;31.58;33.37;98871.66;5017814;28;20491;-77
2023/06/28 09:48:02;;;;;;;11.77;6.40;;;;;;;31.64;33.53;98881.25;5026537;28;20562;-79
2023/06/28 09:50:36;;;;;;;11.25;6.60;;;;;;;32.17;32.44;98867.22;5037720;28;20033;-78
2023/06/28 09:53:05;;;;;;;9.60;7.50;;;;;;;31.94;34.18;98866.84;5025175;28;20063;-75
2023/06/28 09:55:30;;;;;;;9.17;6.13;;;;;;;31.45;32.97;98878.50;5030929;28;20021;-76
2023/06/28 09:57:57;;;;;;;7.20;6.50;;;;;;;31.26;33.77;98874.97;5040968;28;20028;-75
2023/06/28 10:00:25;;;;;;;7.65;6.25;;;;;;;31.76;33.32;98862.84;5029261;28;20036;-74
2023/06/28 10:02:51;;;;;;;11.32;6.95;;;;;;;31.74;32.73;98865.44;5023834;28;20020;-78
2023/06/28 10:05:17;;;;;;;16.38;7.20;;;;;;;31.61;33.02;98862.81;5025912;28;20030;-74
2023/06/28 10:07:44;;;;;;;11.32;7.32;;;;;;;32.03;32.97;98855.19;5042022;28;20079;-76
2023/06/28 10:10:11;;;;;;;8.90;6.88;;;;;;;32.59;31.19;98851.63;5047092;28;20024;-77
2023/06/28 10:12:37;;;;;;;10.25;6.53;;;;;;;32.95;31.03;98845.84;5047998;28;20482;-77
2023/06/28 10:15:08;;;;;;;10.02;6.15;;;;;;;33.33;30.64;98848.94;5042793;28;20488;-77
2023/06/28 10:17:35;;;;;;;8.10;6.20;;;;;;;32.99;30.89;98842.72;5022515;28;20025;-74
2023/06/28 10:20:04;;;;;;;10.20;6.10;;;;;;;33.36;29.90;98842.13;4983916;28;1170862;-75
2023/06/28 10:22:30;;;;;;;7.17;6.57;;;;;;;33.40;29.90;98839.78;5041146;28;20403;-75
2023/06/28 10:24:57;;;;;;;7.05;6.35;;;;;;;31.71;31.81;98837.50;5046707;28;20044;-75
2023/06/28 10:27:23;;;;;;;7.57;6.63;;;;;;;31.99;33.04;98827.75;5046457;28;20502;-75
2023/06/28 10:29:50;;;;;;;8.80;6.15;;;;;;;32.20;32.49;98843.91;5041501;28;20029;-75
2023/06/28 10:32:16;;;;;;;7.97;6.65;;;;;;;32.24;31.24;98837.09;5023462;28;20054;-75
2023/06/28 10:34:45;;;;;;;8.02;6.47;;;;;;;32.33;31.44;98819.63;5044677;28;20029;-75
2023/06/28 10:37:11;;;;;;;8.10;6.07;;;;;;;31.89;31.24;98824.97;5044724;28;20120;-75
2023/06/28 10:39:38;;;;;;;6.88;5.78;;;;;;;32.45;30.80;98833.00;5042921;28;20017;-77
2023/06/28 10:42:05;;;;;;;7.35;6.65;;;;;;;32.88;31.28;98825.94;5044168;28;20439;-77
2023/06/28 10:44:30;;;;;;;7.03;6.18;;;;;;;32.65;30.80;98831.47;5047870;28;20025;-78
2023/06/28 10:47:12;;;;;;;7.00;6.32;;;;;;;32.83;29.96;98830.41;5047915;28;20025;-77
2023/06/28 10:49:41;;;;;;;7.88;7.10;;;;;;;32.69;32.22;98826.25;5048508;28;20044;-77
2023/06/28 10:52:17;;;;;;;7.68;5.88;;;;;;;32.39;31.39;98829.22;5046415;28;20033;-77
2023/06/28 10:54:42;;;;;;;7.53;6.32;;;;;;;32.08;31.96;98825.56;5048750;28;20036;-77
2023/06/28 10:57:11;;;;;;;7.75;6.82;;;;;;;31.86;31.60;98825.19;5039590;28;20037;-77
2023/06/28 10:59:41;;;;;;;6.95;6.25;;;;;;;32.86;32.27;98817.78;5026822;28;20021;-77
2023/06/28 11:02:06;;;;;;;7.70;6.68;;;;;;;32.41;31.52;98811.38;5049039;28;20029;-77
2023/06/28 11:04:32;;;;;;;8.13;6.30;;;;;;;31.78;32.07;98814.00;5030487;28;20078;-77
2023/06/28 11:07:07;;;;;;;9.88;7.15;;;;;;;32.40;32.51;98821.34;5029232;28;20045;-77
2023/06/28 11:09:32;;;;;;;8.82;5.80;;;;;;;32.45;32.44;98809.06;5043703;28;20025;-77
2023/06/28 11:11:59;;;;;;;6.68;5.97;;;;;;;32.22;32.89;98811.59;5020655;28;20037;-77
2023/06/28 11:14:27;;;;;;;11.02;6.75;;;;;;;32.20;32.15;98808.38;5026685;28;20037;-77
2023/06/28 11:17:06;;;;;;;10.30;6.95;;;;;;;31.97;32.87;98815.91;5036798;28;20087;-77
2023/06/28 11:19:32;;;;;;;8.50;7.13;;;;;;;31.90;32.89;98820.78;5028754;28;20412;-77
2023/06/28 11:22:00;;;;;;;8.10;6.35;;;;;;;31.77;32.61;98806.63;5043696;28;20021;-77